Strona główna
METAR-TAF:

METAR-TAF

Lotnisko :

Majuro, Wyspy Marshalla

Port lotniczy Wyspy Marshalla

Szerokość geograficzna: 07-04N, Długość geograficzna: 171-17E, wysokość: 2 m

Aktualna obserwacja pogody

Raport powstał 37 minut temu, godzina 04:50 UTC
Wiatr 12 kt od wschód
Temperatura 30°C
Wilgotność 75%
Ciśnienie 1006 hPa
Widzialność: 24.1 km
Mało chmury na wysokości 1500 ft
Rozproszone chmury na wysokości 5000 ft
Przerywane chmury na wysokości 30000 ft

METAR: PKMJ 190450Z 09012KT 15SM FEW015 SCT050 BKN300 30/25 A2970

czas: 17:27 (05:27 UTC)

Prognoza

Raport powstał 5 godziny i 57 minut temu, godzina 23:30 UTC
Prognoza ważna od 19 godzina 00 UTC do 19 godzina 24 UTC
Wiatr 11 kt od wschodnio-południowy wschód
Widzialność: 10 km
Mało chmury na wysokości 1400 ft
Rozproszone chmury na wysokości 5000 ft
Rozproszone chmury na wysokości 12000 ft
przelotny w pobliże

TAF: PKMJ 182330Z 1900/1924 11011KT P6SM VCSH FEW014 SCT050 SCT120

Obserwacja i prognoza pogody dla ponad 4000 lotnisk (raport METAR i TAF).

Dostępne stacje oznaczono żółtymi i czerwonymi punktami na mapie.

Najedź kursorem aby zobaczyć nazwę stacji.

Kliknij aby zobaczyć obserwacje i prognozy pogody.

Aby zmienić mapę: kliknij na zielony przycisk z czarnym krzyżykiem, aby powiększyć; na zielony przycisk z myślnikiem, aby pomniejszyć; na zielone strzałki, aby przejść do map sąsiednich.


METAR-TAF: